createdAt,value
2018-11-25T00:01:11.071Z,43.39
2018-11-25T00:03:37.068Z,43.23
2018-11-25T00:06:03.112Z,43.17
2018-11-25T00:08:29.155Z,43.21
2018-11-25T00:10:55.186Z,43.15
2018-11-25T00:13:21.208Z,43.21
2018-11-25T00:15:47.192Z,43.34
2018-11-25T00:18:13.175Z,43.18
2018-11-25T00:20:39.195Z,43.14
2018-11-25T00:23:05.210Z,43.14
2018-11-25T00:25:31.193Z,43.15
2018-11-25T00:27:57.204Z,43.13
2018-11-25T00:30:23.204Z,43.06
2018-11-25T00:32:49.182Z,43.03
2018-11-25T00:35:15.196Z,43.03
2018-11-25T00:37:48.070Z,43.00
2018-11-25T00:40:07.166Z,42.88
2018-11-25T00:42:33.162Z,42.91
2018-11-25T00:44:59.168Z,42.95
2018-11-25T00:47:25.154Z,43.02
2018-11-25T00:49:51.138Z,43.00
2018-11-25T00:52:17.152Z,42.84
2018-11-25T00:54:43.192Z,42.91
2018-11-25T00:57:09.175Z,42.89
2018-11-25T00:59:35.149Z,42.90
2018-11-25T01:02:01.138Z,43.00
2018-11-25T01:04:27.137Z,43.03
2018-11-25T01:06:53.112Z,42.87
2018-11-25T01:09:19.132Z,43.04
2018-11-25T01:11:45.152Z,42.80
2018-11-25T01:14:11.156Z,42.90
2018-11-25T01:16:37.135Z,42.85
2018-11-25T01:19:03.153Z,42.75
2018-11-25T01:21:29.168Z,42.94
2018-11-25T01:23:55.153Z,42.73
2018-11-25T01:26:21.171Z,42.85
2018-11-25T01:28:47.173Z,42.68
2018-11-25T01:31:13.169Z,42.62
2018-11-25T01:33:39.185Z,42.57
2018-11-25T01:36:05.206Z,42.76
2018-11-25T01:38:31.190Z,42.72
2018-11-25T01:40:57.214Z,42.79
2018-11-25T01:43:23.200Z,42.71
2018-11-25T01:45:49.207Z,42.55
2018-11-25T01:48:15.192Z,42.73
2018-11-25T01:50:41.179Z,42.54
2018-11-25T01:53:07.153Z,42.60
2018-11-25T01:55:33.183Z,42.50
2018-11-25T01:57:59.156Z,42.44
2018-11-25T02:00:25.152Z,42.64
2018-11-25T02:02:51.129Z,42.62
2018-11-25T02:05:17.153Z,42.61
2018-11-25T02:07:43.152Z,42.63
2018-11-25T02:10:09.161Z,42.42
2018-11-25T02:12:35.151Z,42.34
2018-11-25T02:15:01.142Z,42.37
2018-11-25T02:17:27.147Z,42.40
2018-11-25T02:19:53.140Z,42.61
2018-11-25T02:22:19.151Z,42.54
2018-11-25T02:24:45.141Z,42.56
2018-11-25T02:27:11.136Z,42.42
2018-11-25T02:29:37.129Z,42.66
2018-11-25T02:32:03.159Z,42.32
2018-11-25T02:34:29.160Z,42.54
2018-11-25T02:36:55.182Z,42.46
2018-11-25T02:39:21.208Z,42.29
2018-11-25T02:41:47.207Z,42.41
2018-11-25T02:44:13.217Z,42.45
2018-11-25T02:46:39.228Z,42.55
2018-11-25T02:49:05.231Z,42.19
2018-11-25T02:51:31.243Z,42.34
2018-11-25T02:53:57.263Z,42.39
2018-11-25T02:56:23.249Z,42.26
2018-11-25T02:58:49.254Z,42.36
2018-11-25T03:01:15.257Z,42.41
2018-11-25T03:03:41.260Z,42.25
2018-11-25T03:06:07.279Z,42.22
2018-11-25T03:08:33.290Z,42.20
2018-11-25T03:10:59.268Z,42.16
2018-11-25T03:13:25.243Z,42.12
2018-11-25T03:15:51.299Z,42.30
2018-11-25T03:18:17.284Z,42.24
2018-11-25T03:20:43.295Z,42.15
2018-11-25T03:23:09.319Z,42.15
2018-11-25T03:25:35.287Z,42.33
2018-11-25T03:28:01.285Z,42.47
2018-11-25T03:30:27.281Z,42.43
2018-11-25T03:32:53.276Z,42.50
2018-11-25T03:35:19.277Z,42.32
2018-11-25T03:37:45.280Z,42.51
2018-11-25T03:40:11.273Z,42.40
2018-11-25T03:42:37.276Z,42.60
2018-11-25T03:45:03.285Z,42.57
2018-11-25T03:47:29.281Z,42.45
2018-11-25T03:49:55.278Z,42.50
2018-11-25T03:52:21.328Z,42.50
2018-11-25T03:54:47.265Z,42.61
2018-11-25T03:57:13.258Z,42.56
2018-11-25T03:59:39.323Z,42.53
2018-11-25T04:02:05.284Z,42.56
2018-11-25T04:04:31.300Z,42.60
2018-11-25T04:06:57.294Z,42.60
2018-11-25T04:09:23.341Z,42.62
2018-11-25T04:11:49.359Z,42.69
2018-11-25T04:14:15.349Z,42.59
2018-11-25T04:16:41.362Z,42.61
2018-11-25T04:19:07.344Z,42.54
2018-11-25T04:21:33.325Z,42.71
2018-11-25T04:23:59.308Z,42.53
2018-11-25T04:26:25.300Z,42.57
2018-11-25T04:28:51.300Z,42.67
2018-11-25T04:31:17.288Z,42.72
2018-11-25T04:33:43.305Z,42.64
2018-11-25T04:36:09.289Z,42.54
2018-11-25T04:38:35.274Z,42.63
2018-11-25T04:41:01.269Z,42.60
2018-11-25T04:43:27.277Z,42.61
2018-11-25T04:45:53.252Z,42.59
2018-11-25T04:48:19.296Z,42.62
2018-11-25T04:50:45.289Z,42.67
2018-11-25T04:53:11.274Z,42.45
2018-11-25T04:55:37.251Z,42.57
2018-11-25T04:58:03.293Z,42.62
2018-11-25T05:00:29.303Z,42.68
2018-11-25T05:02:55.293Z,42.68
2018-11-25T05:05:21.286Z,42.74
2018-11-25T05:07:47.298Z,42.83
2018-11-25T05:10:13.274Z,42.82
2018-11-25T05:12:39.300Z,42.73
2018-11-25T05:15:05.374Z,42.75
2018-11-25T05:17:31.378Z,42.73
2018-11-25T05:19:57.388Z,42.81
2018-11-25T05:22:23.372Z,42.89
2018-11-25T05:24:49.364Z,42.94
2018-11-25T05:27:15.351Z,43.01
2018-11-25T05:29:41.384Z,42.93
2018-11-25T05:32:07.342Z,42.85
2018-11-25T05:34:33.328Z,42.85
2018-11-25T05:36:59.313Z,42.83
2018-11-25T05:39:25.285Z,42.76
2018-11-25T05:41:51.302Z,42.90
2018-11-25T05:44:17.377Z,42.91
2018-11-25T05:46:43.336Z,42.95
2018-11-25T05:49:09.369Z,42.97
2018-11-25T05:51:35.382Z,42.76
2018-11-25T05:54:01.404Z,42.86
2018-11-25T05:56:27.569Z,43.00
2018-11-25T05:58:53.585Z,43.00
2018-11-25T06:01:19.556Z,43.03
2018-11-25T06:03:45.565Z,42.98
2018-11-25T06:06:11.555Z,43.06
2018-11-25T06:08:37.566Z,43.05
2018-11-25T06:11:03.558Z,43.07
2018-11-25T06:13:29.577Z,42.97
2018-11-25T06:15:55.607Z,42.93
2018-11-25T06:18:21.608Z,43.12
2018-11-25T06:20:47.618Z,42.99
2018-11-25T06:23:13.634Z,42.97
2018-11-25T06:25:39.638Z,42.94
2018-11-25T06:28:05.618Z,42.99
2018-11-25T06:30:31.608Z,42.94
2018-11-25T06:32:57.596Z,42.94
2018-11-25T06:35:23.584Z,42.80
2018-11-25T06:37:49.635Z,42.76
2018-11-25T06:40:15.645Z,42.73
2018-11-25T06:42:41.689Z,42.75
2018-11-25T06:45:07.703Z,42.72
2018-11-25T06:47:33.725Z,42.81
2018-11-25T06:49:59.720Z,42.62
2018-11-25T06:52:25.732Z,42.41
2018-11-25T06:54:51.801Z,42.00
2018-11-25T06:57:17.807Z,41.94
2018-11-25T06:59:43.814Z,42.04
2018-11-25T07:02:09.821Z,42.17
2018-11-25T07:04:35.797Z,41.76
2018-11-25T07:07:01.811Z,41.69
2018-11-25T07:09:27.826Z,41.89
2018-11-25T07:11:55.312Z,41.64
2018-11-25T07:14:21.295Z,41.86
2018-11-25T07:16:47.411Z,42.00
2018-11-25T07:19:13.368Z,41.62
2018-11-25T07:21:39.460Z,41.82
2018-11-25T07:24:05.618Z,41.54
2018-11-25T07:26:31.610Z,41.83
2018-11-25T07:28:57.662Z,41.66
2018-11-25T07:31:23.857Z,41.67
2018-11-25T07:33:49.849Z,41.94
2018-11-25T07:36:15.847Z,42.04
2018-11-25T07:38:41.866Z,41.98
2018-11-25T07:41:07.862Z,42.11
2018-11-25T07:43:33.864Z,42.25
2018-11-25T07:45:59.838Z,42.31
2018-11-25T07:48:25.845Z,42.40
2018-11-25T07:50:51.841Z,42.43
2018-11-25T07:53:17.860Z,42.66
2018-11-25T07:55:43.864Z,42.55
2018-11-25T07:58:09.852Z,42.64
2018-11-25T08:00:35.863Z,42.75
2018-11-25T08:03:01.852Z,42.61
2018-11-25T08:05:27.882Z,42.68
2018-11-25T08:07:53.867Z,42.67
2018-11-25T08:10:19.883Z,42.78
2018-11-25T08:12:45.888Z,42.73
2018-11-25T08:15:11.869Z,42.70
2018-11-25T08:17:37.872Z,42.70
2018-11-25T08:20:03.933Z,42.74
2018-11-25T08:22:29.938Z,42.90
2018-11-25T08:24:55.942Z,43.01
2018-11-25T08:27:21.973Z,43.11
2018-11-25T08:29:48.046Z,43.24
2018-11-25T08:32:14.044Z,43.36
2018-11-25T08:34:40.049Z,43.51
2018-11-25T08:37:06.032Z,43.66
2018-11-25T08:39:32.011Z,43.88
2018-11-25T08:42:02.116Z,43.86
2018-11-25T08:44:28.425Z,43.96
2018-11-25T08:46:54.404Z,44.35
2018-11-25T08:49:20.455Z,44.24
2018-11-25T08:51:46.488Z,44.48
2018-11-25T08:54:12.457Z,44.32
2018-11-25T08:56:38.522Z,44.68
2018-11-25T08:59:04.508Z,44.54
2018-11-25T09:01:30.531Z,44.56
2018-11-25T09:03:56.520Z,44.49
2018-11-25T09:06:22.538Z,44.45
2018-11-25T09:08:48.539Z,44.37
2018-11-25T09:11:14.509Z,44.23
2018-11-25T09:13:40.508Z,44.01
2018-11-25T09:16:06.509Z,43.81
2018-11-25T09:18:32.490Z,43.46
2018-11-25T09:20:58.491Z,43.11
2018-11-25T09:23:24.489Z,42.43
2018-11-25T09:25:50.489Z,41.67
2018-11-25T09:28:16.532Z,41.17
2018-11-25T09:30:42.548Z,41.26
2018-11-25T09:33:08.542Z,41.51
2018-11-25T09:35:34.538Z,40.96
2018-11-25T09:38:00.558Z,39.94
2018-11-25T09:40:26.551Z,40.33
2018-11-25T09:42:52.563Z,39.76
2018-11-25T09:45:18.546Z,38.79
2018-11-25T09:47:44.542Z,39.36
2018-11-25T09:50:10.523Z,38.63
2018-11-25T09:52:36.518Z,38.44
2018-11-25T09:55:02.558Z,39.24
2018-11-25T09:57:28.553Z,38.46
2018-11-25T09:59:54.558Z,39.28
2018-11-25T10:02:20.575Z,39.59
2018-11-25T10:04:46.577Z,39.81
2018-11-25T10:07:12.572Z,39.72
2018-11-25T10:09:38.609Z,39.79
2018-11-25T10:12:04.593Z,40.02
2018-11-25T10:14:30.606Z,40.25
2018-11-25T10:16:56.715Z,40.49
2018-11-25T10:19:22.734Z,40.59
2018-11-25T10:21:48.725Z,40.95
2018-11-25T10:24:14.739Z,41.13
2018-11-25T10:26:40.728Z,41.52
2018-11-25T10:29:07.117Z,41.62
2018-11-25T10:31:33.107Z,41.56
2018-11-25T10:33:59.145Z,41.62
2018-11-25T10:36:27.597Z,41.71
2018-11-25T10:38:53.592Z,41.76
2018-11-25T10:41:19.614Z,41.87
2018-11-25T10:43:45.729Z,41.99
2018-11-25T10:46:11.736Z,42.00
2018-11-25T10:48:38.041Z,41.99
2018-11-25T10:51:05.392Z,41.97
2018-11-25T10:53:31.409Z,41.93
2018-11-25T10:55:57.429Z,42.02
2018-11-25T10:58:23.432Z,42.04
2018-11-25T11:00:49.468Z,42.07
2018-11-25T11:03:15.456Z,41.94
2018-11-25T11:05:41.462Z,42.05
2018-11-25T11:08:07.467Z,42.07
2018-11-25T11:10:33.473Z,42.10
2018-11-25T11:12:59.444Z,42.16
2018-11-25T11:15:25.445Z,42.50
2018-11-25T11:17:51.428Z,42.28
2018-11-25T11:20:17.429Z,42.37
2018-11-25T11:22:43.439Z,42.40
2018-11-25T11:25:09.636Z,42.45
2018-11-25T11:27:35.642Z,42.45
2018-11-25T11:30:01.813Z,42.46
2018-11-25T11:32:27.788Z,42.64
2018-11-25T11:34:53.765Z,42.72
2018-11-25T11:37:19.748Z,43.34
2018-11-25T11:39:45.767Z,43.16
2018-11-25T11:42:11.779Z,43.30
2018-11-25T11:44:38.123Z,43.50
2018-11-25T11:47:04.134Z,43.40
2018-11-25T11:49:30.118Z,43.52
2018-11-25T11:51:56.115Z,43.45
2018-11-25T11:54:22.100Z,43.59
2018-11-25T11:56:48.123Z,43.40
2018-11-25T11:59:14.235Z,43.40
2018-11-25T12:01:40.239Z,43.17
2018-11-25T12:04:06.258Z,43.28
2018-11-25T12:06:32.263Z,43.33
2018-11-25T12:08:58.280Z,43.29
2018-11-25T12:11:24.257Z,43.25
2018-11-25T12:13:50.268Z,43.18
2018-11-25T12:16:16.325Z,43.42
2018-11-25T12:18:42.308Z,43.60
2018-11-25T12:21:08.438Z,43.81
2018-11-25T12:23:34.472Z,43.83
2018-11-25T12:26:02.891Z,44.29
2018-11-25T12:28:28.869Z,44.36
2018-11-25T12:30:55.271Z,44.61
2018-11-25T12:33:21.256Z,44.53
2018-11-25T12:35:47.310Z,44.46
2018-11-25T12:38:13.291Z,44.32
2018-11-25T12:40:39.381Z,44.17
2018-11-25T12:43:05.345Z,44.11
2018-11-25T12:45:31.329Z,43.88
2018-11-25T12:47:57.328Z,43.81
2018-11-25T12:50:23.326Z,43.65
2018-11-25T12:52:49.295Z,43.70
2018-11-25T12:55:15.322Z,43.59
2018-11-25T12:57:41.308Z,43.57
2018-11-25T13:00:07.326Z,43.48
2018-11-25T13:02:33.423Z,43.45
2018-11-25T13:04:59.420Z,43.43
2018-11-25T13:07:25.393Z,43.27
2018-11-25T13:09:51.413Z,43.21
2018-11-25T13:12:17.436Z,43.26
2018-11-25T13:14:43.473Z,43.22
2018-11-25T13:17:09.476Z,43.26
2018-11-25T13:19:35.482Z,43.25
2018-11-25T13:22:01.494Z,43.15
2018-11-25T13:24:27.548Z,43.15
2018-11-25T13:26:53.546Z,43.20
2018-11-25T13:29:19.543Z,43.19
2018-11-25T13:31:45.557Z,43.25
2018-11-25T13:34:11.572Z,43.30
2018-11-25T13:36:37.583Z,43.36
2018-11-25T13:39:03.618Z,43.34
2018-11-25T13:41:29.591Z,43.28
2018-11-25T13:43:55.650Z,43.37
2018-11-25T13:46:21.759Z,43.35
2018-11-25T13:48:47.757Z,43.44
2018-11-25T13:51:13.777Z,43.40
2018-11-25T13:53:39.780Z,43.38
2018-11-25T13:56:05.766Z,43.46
2018-11-25T13:58:31.763Z,43.39
2018-11-25T14:00:57.801Z,43.43
2018-11-25T14:03:26.278Z,43.42
2018-11-25T14:05:53.002Z,43.50
2018-11-25T14:08:18.350Z,43.63
2018-11-25T14:10:44.357Z,43.42
2018-11-25T14:13:10.380Z,43.45
2018-11-25T14:15:36.379Z,43.55
2018-11-25T14:18:02.372Z,43.54
2018-11-25T14:20:28.351Z,43.42
2018-11-25T14:22:54.350Z,43.28
2018-11-25T14:25:20.353Z,43.24
2018-11-25T14:27:46.370Z,43.09
2018-11-25T14:30:13.456Z,43.20
2018-11-25T14:32:38.399Z,42.96
2018-11-25T14:35:04.388Z,43.18
2018-11-25T14:37:30.368Z,43.19
2018-11-25T14:39:56.450Z,43.27
2018-11-25T14:42:22.445Z,43.30
2018-11-25T14:44:48.486Z,43.98
2018-11-25T14:47:14.521Z,43.79
2018-11-25T14:49:42.305Z,44.18
2018-11-25T14:52:08.433Z,43.99
2018-11-25T14:54:34.835Z,44.00
2018-11-25T14:57:00.833Z,44.29
2018-11-25T14:59:26.848Z,44.62
2018-11-25T15:01:52.858Z,44.70
2018-11-25T15:04:18.881Z,44.75
2018-11-25T15:06:45.013Z,44.79
2018-11-25T15:09:11.909Z,44.67
2018-11-25T15:11:38.545Z,44.72
2018-11-25T15:14:05.485Z,44.68
2018-11-25T15:16:32.433Z,44.83
2018-11-25T15:18:59.169Z,44.68
2018-11-25T15:21:25.188Z,44.38
2018-11-25T15:23:51.186Z,44.43
2018-11-25T15:26:17.165Z,44.36
2018-11-25T15:28:43.172Z,44.38
2018-11-25T15:31:09.186Z,44.30
2018-11-25T15:33:35.206Z,44.39
2018-11-25T15:36:01.197Z,44.36
2018-11-25T15:38:27.651Z,44.33
2018-11-25T15:40:54.104Z,44.53
2018-11-25T15:43:20.132Z,44.83
2018-11-25T15:45:46.178Z,44.76
2018-11-25T15:48:12.160Z,44.70
2018-11-25T15:50:38.262Z,44.74
2018-11-25T15:53:04.278Z,44.66
2018-11-25T15:55:30.301Z,44.78
2018-11-25T15:57:56.892Z,44.75
2018-11-25T16:00:22.939Z,44.79
2018-11-25T16:02:48.924Z,44.70
2018-11-25T16:05:14.899Z,44.61
2018-11-25T16:07:40.906Z,44.75
2018-11-25T16:10:06.932Z,44.66
2018-11-25T16:12:32.951Z,44.61
2018-11-25T16:14:58.956Z,44.76
2018-11-25T16:17:25.013Z,44.76
2018-11-25T16:19:51.021Z,44.62
2018-11-25T16:22:17.101Z,44.72
2018-11-25T16:24:43.107Z,44.76
2018-11-25T16:27:09.115Z,44.78
2018-11-25T16:29:35.148Z,44.78
2018-11-25T16:32:01.190Z,44.64
2018-11-25T16:34:27.214Z,44.69
2018-11-25T16:36:53.215Z,44.61
2018-11-25T16:39:19.217Z,44.78
2018-11-25T16:41:45.191Z,44.89
2018-11-25T16:44:12.082Z,44.95
2018-11-25T16:46:38.094Z,45.06
2018-11-25T16:49:04.152Z,45.16
2018-11-25T16:51:30.204Z,45.18
2018-11-25T16:53:56.223Z,45.16
2018-11-25T16:56:22.215Z,45.37
2018-11-25T16:58:48.192Z,45.38
2018-11-25T17:01:14.219Z,45.67
2018-11-25T17:03:40.201Z,45.68
2018-11-25T17:06:06.216Z,46.58
2018-11-25T17:08:32.230Z,46.48
2018-11-25T17:10:58.230Z,46.91
2018-11-25T17:13:24.209Z,47.35
2018-11-25T17:15:50.211Z,46.83
2018-11-25T17:18:16.217Z,47.28
2018-11-25T17:20:42.197Z,47.47
2018-11-25T17:23:08.217Z,47.28
2018-11-25T17:25:34.276Z,47.47
2018-11-25T17:28:00.257Z,46.90
2018-11-25T17:30:26.304Z,47.71
2018-11-25T17:32:52.311Z,47.57
2018-11-25T17:35:19.109Z,47.72
2018-11-25T17:37:46.099Z,47.83
2018-11-25T17:40:13.002Z,47.81
2018-11-25T17:42:39.537Z,47.79
2018-11-25T17:45:06.486Z,47.98
2018-11-25T17:47:33.448Z,48.00
2018-11-25T17:50:05.088Z,47.86
2018-11-25T17:52:32.654Z,47.94
2018-11-25T17:54:58.658Z,48.13
2018-11-25T17:57:24.674Z,48.04
2018-11-25T17:59:50.693Z,48.34
2018-11-25T18:02:16.714Z,47.73
2018-11-25T18:04:42.717Z,48.31
2018-11-25T18:07:08.727Z,48.36
2018-11-25T18:09:34.714Z,48.11
2018-11-25T18:12:00.734Z,48.16
2018-11-25T18:14:26.759Z,48.42
2018-11-25T18:16:52.780Z,48.47
2018-11-25T18:19:18.806Z,48.04
2018-11-25T18:21:44.783Z,48.27
2018-11-25T18:24:12.954Z,48.12
2018-11-25T18:26:38.984Z,48.20
2018-11-25T18:29:05.013Z,48.07
2018-11-25T18:31:30.992Z,47.70
2018-11-25T18:33:57.222Z,48.20
2018-11-25T18:36:23.249Z,48.28
2018-11-25T18:38:49.249Z,47.91
2018-11-25T18:41:15.287Z,47.87
2018-11-25T18:43:41.312Z,47.83
2018-11-25T18:46:07.357Z,47.57
2018-11-25T18:48:33.335Z,47.92
2018-11-25T18:50:59.360Z,47.88
2018-11-25T18:53:25.358Z,48.36
2018-11-25T18:55:51.360Z,47.91
2018-11-25T18:58:17.392Z,47.83
2018-11-25T19:00:43.394Z,47.73
2018-11-25T19:03:09.394Z,47.65
2018-11-25T19:05:35.386Z,47.58
2018-11-25T19:08:01.433Z,47.38
2018-11-25T19:10:27.431Z,47.58
2018-11-25T19:12:53.413Z,47.43
2018-11-25T19:15:19.453Z,47.75
2018-11-25T19:17:45.480Z,47.76
2018-11-25T19:20:11.476Z,47.61
2018-11-25T19:22:37.466Z,47.36
2018-11-25T19:25:03.480Z,47.41
2018-11-25T19:27:29.451Z,47.28
2018-11-25T19:29:55.468Z,47.17
2018-11-25T19:32:21.455Z,46.98
2018-11-25T19:34:47.436Z,46.91
2018-11-25T19:37:13.461Z,46.91
2018-11-25T19:39:39.492Z,47.20
2018-11-25T19:42:05.493Z,47.49
2018-11-25T19:44:31.501Z,47.74
2018-11-25T19:46:57.505Z,47.83
2018-11-25T19:49:23.493Z,48.08
2018-11-25T19:51:49.473Z,48.11
2018-11-25T19:54:15.464Z,47.91
2018-11-25T19:56:41.474Z,48.21
2018-11-25T19:59:07.466Z,48.01
2018-11-25T20:01:33.461Z,48.09
2018-11-25T20:04:00.453Z,47.94
2018-11-25T20:06:26.480Z,47.67
2018-11-25T20:08:52.492Z,47.57
2018-11-25T20:11:18.509Z,47.40
2018-11-25T20:13:44.490Z,47.63
2018-11-25T20:16:10.514Z,47.61
2018-11-25T20:18:36.501Z,47.37
2018-11-25T20:21:02.491Z,47.17
2018-11-25T20:23:28.507Z,47.22
2018-11-25T20:25:54.501Z,47.15
2018-11-25T20:28:20.484Z,47.31
2018-11-25T20:30:46.553Z,47.20
2018-11-25T20:33:12.553Z,47.13
2018-11-25T20:35:38.577Z,47.07
2018-11-25T20:38:06.026Z,47.05
2018-11-25T20:40:35.096Z,46.92
2018-11-25T20:43:01.142Z,46.88
2018-11-25T20:45:39.103Z,46.72
2018-11-25T20:48:01.506Z,46.64
2018-11-25T20:50:27.503Z,46.66
2018-11-25T20:52:56.979Z,46.68
2018-11-25T20:55:20.294Z,46.54
2018-11-25T20:57:46.425Z,46.50
2018-11-25T21:00:12.474Z,46.43
2018-11-25T21:02:38.580Z,46.39
2018-11-25T21:05:04.561Z,46.37
2018-11-25T21:07:30.540Z,46.30
2018-11-25T21:09:56.541Z,46.25
2018-11-25T21:12:22.533Z,46.20
2018-11-25T21:14:48.782Z,46.17
2018-11-25T21:17:14.784Z,46.14
2018-11-25T21:19:40.768Z,46.04
2018-11-25T21:22:06.744Z,45.97
2018-11-25T21:24:32.739Z,46.09
2018-11-25T21:26:58.741Z,46.11
2018-11-25T21:29:24.753Z,46.05
2018-11-25T21:31:50.742Z,46.00
2018-11-25T21:34:16.728Z,46.00
2018-11-25T21:36:42.715Z,46.04
2018-11-25T21:39:08.770Z,46.05
2018-11-25T21:41:34.824Z,45.95
2018-11-25T21:44:00.786Z,46.10
2018-11-25T21:46:26.796Z,46.19
2018-11-25T21:48:52.792Z,46.08
2018-11-25T21:51:18.793Z,46.04
2018-11-25T21:53:44.790Z,46.05
2018-11-25T21:56:14.363Z,45.98
2018-11-25T21:58:36.790Z,46.05
2018-11-25T22:01:02.810Z,46.07
2018-11-25T22:03:28.820Z,46.04
2018-11-25T22:05:54.804Z,46.09
2018-11-25T22:08:20.809Z,46.07
2018-11-25T22:10:46.802Z,46.11
2018-11-25T22:13:12.802Z,46.07
2018-11-25T22:15:38.786Z,46.09
2018-11-25T22:18:04.806Z,46.05
2018-11-25T22:20:30.817Z,46.01
2018-11-25T22:22:56.813Z,45.85
2018-11-25T22:25:22.819Z,45.79
2018-11-25T22:27:48.809Z,45.77
2018-11-25T22:30:14.833Z,45.73
2018-11-25T22:32:40.829Z,45.71
2018-11-25T22:35:06.807Z,45.66
2018-11-25T22:37:32.848Z,45.58
2018-11-25T22:39:58.837Z,45.61
2018-11-25T22:42:24.826Z,45.55
2018-11-25T22:44:50.825Z,45.61
2018-11-25T22:47:16.813Z,45.48
2018-11-25T22:49:42.833Z,45.45
2018-11-25T22:52:08.834Z,45.49
2018-11-25T22:54:34.840Z,45.44
2018-11-25T22:57:00.859Z,45.41
2018-11-25T22:59:26.824Z,45.44
2018-11-25T23:01:52.820Z,45.36
2018-11-25T23:04:18.840Z,45.42
2018-11-25T23:06:44.828Z,45.43
2018-11-25T23:09:10.828Z,45.35
2018-11-25T23:11:36.846Z,45.25
2018-11-25T23:14:02.828Z,45.23
2018-11-25T23:16:28.862Z,45.13
2018-11-25T23:18:54.857Z,45.19
2018-11-25T23:21:20.847Z,45.26
2018-11-25T23:23:46.860Z,45.12
2018-11-25T23:26:12.859Z,45.09
2018-11-25T23:28:38.871Z,45.07
2018-11-25T23:31:04.869Z,45.10
2018-11-25T23:33:30.868Z,45.07
2018-11-25T23:35:56.871Z,45.12
2018-11-25T23:38:22.848Z,45.07
2018-11-25T23:40:48.828Z,44.96
2018-11-25T23:43:14.854Z,44.92
2018-11-25T23:45:40.881Z,44.87
2018-11-25T23:48:06.880Z,44.95
2018-11-25T23:50:32.893Z,44.94
2018-11-25T23:52:58.892Z,44.96
2018-11-25T23:55:24.870Z,44.88
2018-11-25T23:57:50.886Z,45.00
